Time;durP1;ratioP1;P1;durP2;ratioP2;P2;SDS_P1;SDS_P2;PMS_P1;PMS_P2;Temp;Humidity;BMP_temperature;BMP_pressure;BME280_temperature;BME280_humidity;BME280_pressure;Samples;Min_cycle;Max_cycle;Signal;HPM_P1;HPM_P2
2021/03/11 00:02:08;;;;;;;;;9.25;6.00;;;;;10.18;39.85;98713.13;4682417;29;104502;-77
2021/03/11 00:04:34;;;;;;;;;8.50;7.50;;;;;10.18;39.82;98716.69;4697930;29;102847;-88
2021/03/11 00:07:01;;;;;;;;;11.75;9.75;;;;;10.18;40.28;98707.75;4694325;29;102709;-88
2021/03/11 00:09:28;;;;;;;;;10.50;8.50;;;;;10.17;39.83;98706.09;4698630;29;103384;-88
2021/03/11 00:11:54;;;;;;;;;9.00;9.00;;;;;10.18;39.85;98715.84;4695658;29;104597;-88
2021/03/11 00:14:21;;;;;;;;;9.50;9.00;;;;;10.16;39.37;98713.34;4699923;29;102878;-88
2021/03/11 00:16:48;;;;;;;;;10.50;9.25;;;;;10.16;39.21;98707.13;4701913;29;102989;-88
2021/03/11 00:19:16;;;;;;;;;10.00;9.75;;;;;10.16;39.75;98702.56;4695716;29;102669;-88
2021/03/11 00:21:42;;;;;;;;;11.00;10.25;;;;;10.15;39.66;98706.28;4697114;29;105177;-88
2021/03/11 00:24:09;;;;;;;;;14.25;11.25;;;;;10.14;39.82;98703.72;4700497;29;102952;-89
2021/03/11 00:26:36;;;;;;;;;11.00;10.25;;;;;10.14;39.86;98714.53;4692698;29;102885;-89
2021/03/11 00:29:02;;;;;;;;;11.50;11.00;;;;;10.15;39.63;98710.81;4683271;29;103062;-88
2021/03/11 00:31:29;;;;;;;;;11.00;10.00;;;;;10.14;39.67;98703.72;4678886;29;104254;-88
2021/03/11 00:33:56;;;;;;;;;11.75;10.00;;;;;10.14;39.93;98703.72;4701717;29;104558;-88
2021/03/11 00:36:23;;;;;;;;;12.25;9.25;;;;;10.14;39.63;98701.03;4697078;29;102817;-77
2021/03/11 00:38:49;;;;;;;;;11.75;10.00;;;;;10.14;39.61;98706.44;4684715;29;102914;-77
2021/03/11 00:41:16;;;;;;;;;9.75;9.00;;;;;10.13;39.73;98696.69;4701753;29;104010;-77
2021/03/11 00:43:42;;;;;;;;;10.25;8.25;;;;;10.11;39.79;98687.91;4701052;29;102876;-77
2021/03/11 00:46:09;;;;;;;;;10.00;7.75;;;;;10.12;40.02;98692.28;4686277;29;102859;-77
2021/03/11 00:48:36;;;;;;;;;11.00;9.00;;;;;10.11;39.49;98688.75;4688583;29;102895;-77
2021/03/11 00:51:03;;;;;;;;;12.50;10.75;;;;;10.08;39.77;98682.91;4692093;29;104454;-77
2021/03/11 00:53:33;;;;;;;;;8.75;8.50;;;;;10.09;39.89;98687.25;4676456;29;103927;-77
2021/03/11 00:56:00;;;;;;;;;10.75;8.75;;;;;10.09;39.79;98692.66;4679533;29;102883;-77
2021/03/11 00:58:27;;;;;;;;;9.00;9.00;;;;;10.09;39.81;98696.22;4703641;29;105142;-77
2021/03/11 01:00:53;;;;;;;;;9.00;8.00;;;;;10.08;40.23;98699.13;4697297;29;104003;-77
2021/03/11 01:03:20;;;;;;;;;9.50;8.00;;;;;10.07;39.99;98700.16;4699135;29;102965;-77
2021/03/11 01:05:47;;;;;;;;;8.00;7.00;;;;;10.04;39.85;98697.84;4693375;29;104932;-77
2021/03/11 01:08:14;;;;;;;;;11.25;9.25;;;;;10.04;39.55;98703.25;4700504;29;104984;-77
2021/03/11 01:10:41;;;;;;;;;9.25;8.75;;;;;10.02;39.92;98684.53;4692077;29;104051;-77
2021/03/11 01:13:07;;;;;;;;;13.50;10.50;;;;;10.03;39.91;98690.78;4707061;29;105155;-77
2021/03/11 01:15:44;;;;;;;;;9.50;9.00;;;;;10.04;39.62;98685.16;4693589;29;102806;-77
2021/03/11 01:18:12;;;;;;;;;11.00;8.50;;;;;10.04;39.52;98698.66;4695999;29;102919;-77
2021/03/11 01:20:39;;;;;;;;;10.00;9.00;;;;;10.04;39.78;98687.03;4700109;29;104506;-77
2021/03/11 01:23:06;;;;;;;;;9.25;9.00;;;;;10.04;39.70;98682.44;4691493;29;102991;-77
2021/03/11 01:25:33;;;;;;;;;16.25;10.50;;;;;10.03;39.91;98682.66;4691002;29;102803;-77
2021/03/11 01:28:00;;;;;;;;;10.75;10.75;;;;;10.03;40.24;98678.09;4686498;29;103008;-77
2021/03/11 01:30:27;;;;;;;;;10.25;9.00;;;;;10.03;39.56;98680.81;4693906;29;104524;-77
2021/03/11 01:32:54;;;;;;;;;12.25;11.00;;;;;10.04;40.05;98676.25;4689545;29;102845;-76
2021/03/11 01:35:21;;;;;;;;;9.25;8.50;;;;;10.02;39.74;98678.28;4700034;29;102944;-77
2021/03/11 01:37:47;;;;;;;;;11.00;9.25;;;;;10.02;39.61;98672.88;4703806;29;102692;-77
2021/03/11 01:40:14;;;;;;;;;10.75;8.50;;;;;10.01;39.63;98666.63;4700269;29;104779;-77
2021/03/11 01:42:41;;;;;;;;;8.50;7.00;;;;;10.00;39.45;98661.44;4696905;29;102728;-77
2021/03/11 01:45:08;;;;;;;;;7.00;7.00;;;;;9.96;39.32;98661.00;4700170;29;105039;-77
2021/03/11 01:47:35;;;;;;;;;8.50;8.00;;;;;9.96;39.42;98652.88;4698651;29;102982;-77
2021/03/11 01:50:04;;;;;;;;;11.00;8.50;;;;;9.96;39.91;98650.19;4702237;29;104357;-77
2021/03/11 01:52:30;;;;;;;;;9.00;7.75;;;;;9.94;40.05;98644.16;4680771;29;105095;-77
2021/03/11 01:54:57;;;;;;;;;9.75;8.25;;;;;9.92;39.79;98640.81;4667046;29;106633;-77
2021/03/11 01:57:24;;;;;;;;;14.25;10.25;;;;;9.96;39.57;98646.66;4703656;29;102967;-77
2021/03/11 01:59:51;;;;;;;;;9.75;8.50;;;;;9.95;39.46;98639.59;4685036;29;104784;-77
2021/03/11 02:02:17;;;;;;;;;8.00;8.00;;;;;10.00;39.96;98646.06;4659361;29;102995;-77
2021/03/11 02:04:44;;;;;;;;;6.75;6.25;;;;;10.03;39.65;98647.53;4688173;29;102730;-77
2021/03/11 02:07:11;;;;;;;;;9.00;7.75;;;;;10.04;39.64;98638.41;4684461;29;102923;-77
2021/03/11 02:09:38;;;;;;;;;9.50;7.50;;;;;10.06;39.84;98645.28;4683283;29;104211;-77
2021/03/11 02:12:30;;;;;;;;;10.50;9.50;;;;;10.09;39.66;98638.63;4690019;29;103127;-77
2021/03/11 02:15:21;;;;;;;;;11.00;10.50;;;;;10.09;39.40;98625.13;4677322;29;102825;-77
2021/03/11 02:18:10;;;;;;;;;15.50;11.25;;;;;10.08;39.39;98612.69;4699867;29;103663;-77
2021/03/11 02:20:54;;;;;;;;;8.00;7.00;;;;;10.10;39.85;98613.28;4593319;29;109649;-77
2021/03/11 02:24:03;;;;;;;;;10.50;10.00;;;;;10.11;38.95;98598.75;4680269;29;102799;-77
2021/03/11 02:26:54;;;;;;;;;9.50;9.00;;;;;10.11;39.37;98609.56;4622503;29;102764;-77
2021/03/11 02:29:26;;;;;;;;;12.00;10.00;;;;;10.08;39.58;98588.38;4693692;29;102766;-77
2021/03/11 02:31:54;;;;;;;;;11.25;10.00;;;;;10.08;39.34;98591.91;4677565;29;108157;-77
2021/03/11 02:34:24;;;;;;;;;10.00;9.00;;;;;10.10;39.34;98594.38;4673727;29;102774;-77
2021/03/11 02:36:56;;;;;;;;;10.50;9.75;;;;;10.10;39.41;98583.56;4676685;29;102893;-77
2021/03/11 02:39:24;;;;;;;;;13.50;11.00;;;;;10.10;39.24;98583.56;4665136;29;102790;-77
2021/03/11 02:41:55;;;;;;;;;11.50;9.25;;;;;10.09;39.37;98579.19;4696699;29;109957;-77
2021/03/11 02:44:22;;;;;;;;;11.75;10.50;;;;;10.09;39.38;98573.78;4662163;29;102948;-77
2021/03/11 02:46:49;;;;;;;;;14.25;12.50;;;;;10.09;39.53;98576.50;4693611;29;110176;-77
2021/03/11 02:49:18;;;;;;;;;12.50;10.75;;;;;10.07;39.15;98571.31;4683819;29;103338;-77
2021/03/11 02:51:44;;;;;;;;;16.00;12.00;;;;;10.07;39.62;98567.78;4683027;29;106003;-77
2021/03/11 02:54:11;;;;;;;;;16.00;11.25;;;;;10.07;39.06;98575.88;4702897;29;102783;-77
2021/03/11 02:56:57;;;;;;;;;18.75;13.50;;;;;10.07;39.63;98578.59;4672286;29;102773;-77
2021/03/11 02:59:24;;;;;;;;;17.00;11.00;;;;;10.06;39.51;98563.41;4688908;29;105021;-77
2021/03/11 03:01:51;;;;;;;;;12.00;11.00;;;;;10.05;39.67;98562.56;4673096;29;104138;-77
2021/03/11 03:04:17;;;;;;;;;11.25;10.75;;;;;10.04;39.30;98555.47;4666541;29;102925;-77
2021/03/11 03:06:44;;;;;;;;;15.00;12.50;;;;;10.02;39.17;98551.31;4691899;29;102979;-77
2021/03/11 03:09:11;;;;;;;;;14.50;11.25;;;;;10.04;39.33;98554.69;4700304;29;104693;-77
2021/03/11 03:11:38;;;;;;;;;15.00;11.25;;;;;10.04;39.10;98554.69;4681442;29;104101;-77
2021/03/11 03:14:07;;;;;;;;;14.00;11.75;;;;;10.03;39.60;98539.50;4679248;29;103056;-77
2021/03/11 03:16:35;;;;;;;;;14.25;13.50;;;;;10.02;39.46;98540.53;4666519;29;102977;-77
2021/03/11 03:19:02;;;;;;;;;11.50;10.25;;;;;10.02;39.42;98548.63;4668771;29;102713;-77
2021/03/11 03:21:29;;;;;;;;;15.00;12.25;;;;;10.00;39.16;98539.88;4703567;29;105602;-77
2021/03/11 03:23:57;;;;;;;;;13.50;10.50;;;;;9.99;39.28;98541.75;4699306;29;102942;-77
2021/03/11 03:26:23;;;;;;;;;11.75;11.00;;;;;9.96;39.66;98534.03;4698857;29;102828;-77
2021/03/11 03:28:50;;;;;;;;;13.50;11.50;;;;;9.96;39.22;98542.13;4700411;29;102804;-77
2021/03/11 03:31:17;;;;;;;;;9.75;8.75;;;;;9.97;39.75;98541.13;4664695;29;103913;-77
2021/03/11 03:33:44;;;;;;;;;11.25;10.75;;;;;9.95;38.96;98542.38;4697929;29;104656;-77
2021/03/11 03:36:10;;;;;;;;;10.25;10.00;;;;;9.92;39.43;98543.56;4697505;29;102915;-77
2021/03/11 03:38:37;;;;;;;;;10.00;9.00;;;;;9.92;39.53;98548.13;4697155;29;103058;-77
2021/03/11 03:41:04;;;;;;;;;10.00;8.25;;;;;9.90;39.69;98539.41;4670924;29;103767;-77
2021/03/11 03:43:31;;;;;;;;;11.00;8.25;;;;;9.91;39.67;98549.16;4696706;29;102878;-77
2021/03/11 03:46:05;;;;;;;;;10.00;9.25;;;;;9.89;39.07;98552.09;4684583;29;102759;-88
2021/03/11 03:48:53;;;;;;;;;8.00;8.00;;;;;9.88;39.42;98547.72;4659244;29;105034;-88
2021/03/11 03:51:31;;;;;;;;;14.50;9.25;;;;;9.85;39.52;98538.16;4681742;29;110998;-88
2021/03/11 03:54:06;;;;;;;;;11.00;9.00;;;;;9.84;39.34;98532.94;4676340;29;103025;-88
2021/03/11 03:56:42;;;;;;;;;9.25;9.25;;;;;9.83;39.71;98518.59;4688081;29;102900;-88
2021/03/11 03:59:17;;;;;;;;;11.00;9.75;;;;;9.83;39.66;98534.78;4685027;29;103017;-88
2021/03/11 04:01:44;;;;;;;;;10.75;9.00;;;;;9.83;39.37;98531.25;4679781;29;104461;-88
2021/03/11 04:04:12;;;;;;;;;11.00;9.00;;;;;9.81;39.46;98528.78;4695405;29;103699;-88
2021/03/11 04:06:40;;;;;;;;;10.25;10.00;;;;;9.83;39.72;98528.56;4685991;29;104204;-88
2021/03/11 04:09:08;;;;;;;;;11.25;11.00;;;;;9.82;39.18;98524.19;4706554;29;104959;-88
2021/03/11 04:11:35;;;;;;;;;14.00;12.00;;;;;9.81;39.47;98526.06;4696235;29;104585;-88
2021/03/11 04:14:02;;;;;;;;;13.50;10.50;;;;;9.82;39.89;98519.63;4686017;29;103032;-88
2021/03/11 04:16:29;;;;;;;;;11.75;9.50;;;;;9.86;39.52;98523.59;4686113;29;102892;-88
2021/03/11 04:18:57;;;;;;;;;11.25;8.00;;;;;9.90;39.18;98509.72;4688389;29;103049;-87
2021/03/11 04:21:23;;;;;;;;;11.50;9.00;;;;;9.93;39.56;98496.63;4701234;29;103754;-88
2021/03/11 04:23:50;;;;;;;;;8.50;7.00;;;;;9.98;39.12;98496.88;4681723;29;102851;-88
2021/03/11 04:26:25;;;;;;;;;10.00;8.50;;;;;10.01;39.08;98482.13;4676959;29;102758;-87
2021/03/11 04:28:52;;;;;;;;;10.00;10.00;;;;;10.04;39.38;98481.75;4688584;29;102933;-88
2021/03/11 04:31:18;;;;;;;;;10.25;9.25;;;;;10.03;38.77;98474.66;4685148;29;105318;-88
2021/03/11 04:33:45;;;;;;;;;14.75;10.25;;;;;10.07;39.34;98481.34;4666991;29;102814;-88
2021/03/11 04:36:12;;;;;;;;;10.00;10.00;;;;;10.09;39.25;98469.28;4679004;29;102982;-88
2021/03/11 04:38:39;;;;;;;;;10.25;9.50;;;;;10.11;39.44;98469.09;4686327;29;103023;-88
2021/03/11 04:41:05;;;;;;;;;10.00;8.25;;;;;10.13;38.85;98467.03;4681536;29;104467;-88
2021/03/11 04:43:33;;;;;;;;;8.75;7.00;;;;;10.14;39.13;98455.16;4702565;29;102711;-88
2021/03/11 04:45:59;;;;;;;;;11.25;10.00;;;;;10.11;39.25;98466.38;4673417;29;102961;-88
2021/03/11 04:48:27;;;;;;;;;10.75;8.75;;;;;10.15;39.25;98473.03;4676740;29;103039;-88
2021/03/11 04:50:53;;;;;;;;;9.25;9.00;;;;;10.15;39.18;98456.84;4687053;29;103927;-88
2021/03/11 04:53:23;;;;;;;;;10.50;9.00;;;;;10.14;38.81;98464.09;4689803;29;104568;-88
2021/03/11 04:55:50;;;;;;;;;11.00;9.00;;;;;10.15;39.24;98452.31;4699845;29;102799;-89
2021/03/11 04:58:17;;;;;;;;;8.75;7.75;;;;;10.13;39.12;98445.41;4698222;29;104309;-88
2021/03/11 05:00:48;;;;;;;;;9.75;9.25;;;;;10.14;39.17;98449.75;4694508;29;107775;-88
2021/03/11 05:03:15;;;;;;;;;10.25;9.00;;;;;10.12;39.00;98446.44;4699220;29;102719;-88
2021/03/11 05:05:42;;;;;;;;;11.50;9.50;;;;;10.11;39.14;98440.22;4683333;29;102707;-88
2021/03/11 05:08:09;;;;;;;;;10.50;10.00;;;;;10.12;38.84;98443.75;4683853;29;103143;-88
2021/03/11 05:10:36;;;;;;;;;10.00;10.00;;;;;10.14;38.69;98444.34;4698316;29;104286;-88
2021/03/11 05:13:03;;;;;;;;;13.00;9.00;;;;;10.12;39.06;98433.78;4682537;29;102768;-88
2021/03/11 05:15:30;;;;;;;;;11.50;10.50;;;;;10.12;39.11;98435.63;4699383;29;102805;-77
2021/03/11 05:17:57;;;;;;;;;9.50;9.00;;;;;10.12;39.06;98430.22;4701942;29;102862;-77
2021/03/11 05:20:25;;;;;;;;;12.75;11.00;;;;;10.13;38.99;98426.50;4703624;29;104504;-77
2021/03/11 05:22:52;;;;;;;;;10.00;9.00;;;;;10.12;38.58;98420.25;4696057;29;102826;-77
2021/03/11 05:25:19;;;;;;;;;12.50;10.25;;;;;10.10;39.07;98424.19;4702397;29;102731;-77
2021/03/11 05:27:46;;;;;;;;;14.25;10.75;;;;;10.09;39.33;98422.50;4700428;29;106276;-77
2021/03/11 05:30:13;;;;;;;;;10.50;9.75;;;;;10.07;38.95;98430.00;4702374;29;104516;-77
2021/03/11 05:32:40;;;;;;;;;11.75;10.00;;;;;10.08;39.16;98429.81;4695607;29;103010;-77
2021/03/11 05:35:07;;;;;;;;;12.25;11.75;;;;;10.08;38.77;98428.97;4699622;29;102821;-77
2021/03/11 05:37:39;;;;;;;;;10.00;9.00;;;;;10.08;38.98;98421.72;4698656;29;102745;-77
2021/03/11 05:40:12;;;;;;;;;12.00;10.75;;;;;10.07;39.40;98421.91;4701715;29;104043;-77
2021/03/11 05:42:39;;;;;;;;;12.00;8.00;;;;;10.06;38.91;98417.53;4695590;29;103046;-77
2021/03/11 05:45:06;;;;;;;;;15.00;11.75;;;;;10.05;39.15;98423.97;4697633;29;102812;-88
2021/03/11 05:47:34;;;;;;;;;11.00;10.00;;;;;10.04;39.52;98428.53;4680871;29;102960;-88
2021/03/11 05:50:05;;;;;;;;;12.75;10.50;;;;;10.03;39.18;98420.63;4692007;29;104348;-86
2021/03/11 05:52:33;;;;;;;;;11.00;10.00;;;;;10.04;39.18;98425.81;4694895;29;102872;-88
2021/03/11 05:55:00;;;;;;;;;15.25;12.25;;;;;10.03;39.07;98418.78;4700400;29;104818;-88
2021/03/11 05:57:43;;;;;;;;;14.25;11.25;;;;;10.02;38.90;98425.22;4700185;29;102939;-88
2021/03/11 06:00:17;;;;;;;;;11.75;9.50;;;;;10.02;38.98;98410.88;4675521;29;103792;-88
2021/03/11 06:02:44;;;;;;;;;12.25;10.50;;;;;10.01;39.25;98411.88;4691983;29;103033;-88
2021/03/11 06:05:12;;;;;;;;;11.00;8.50;;;;;10.01;38.90;98384.88;4683036;29;105119;-88
2021/03/11 06:07:42;;;;;;;;;10.25;8.00;;;;;10.00;38.72;98380.50;4695292;29;102914;-88
2021/03/11 06:10:09;;;;;;;;;9.00;8.50;;;;;9.98;39.07;98364.53;4701982;29;104043;-88
2021/03/11 06:12:36;;;;;;;;;10.25;9.00;;;;;10.00;38.74;98361.59;4676104;29;102883;-88
2021/03/11 06:15:23;;;;;;;;;15.00;11.50;;;;;9.96;38.74;98358.47;4677747;29;102752;-76
2021/03/11 06:17:50;;;;;;;;;12.25;10.00;;;;;9.97;39.26;98364.72;4696905;29;102736;-77
2021/03/11 06:20:17;;;;;;;;;10.50;9.00;;;;;9.93;39.15;98349.97;4702141;29;103822;-77
2021/03/11 06:22:44;;;;;;;;;11.25;10.25;;;;;9.96;39.26;98352.25;4686830;29;102899;-77
2021/03/11 06:25:10;;;;;;;;;10.25;9.25;;;;;9.94;39.15;98360.56;4696923;29;102730;-77
2021/03/11 06:27:48;;;;;;;;;10.50;8.75;;;;;9.95;38.84;98353.31;4671020;29;102906;-77
2021/03/11 06:30:32;;;;;;;;;9.00;8.25;;;;;9.94;38.92;98360.56;4686068;29;104029;-77
2021/03/11 06:32:59;;;;;;;;;9.25;9.00;;;;;9.93;38.98;98356.19;4702726;29;102972;-77
2021/03/11 06:35:26;;;;;;;;;10.50;10.00;;;;;9.92;39.40;98343.72;4695906;29;102913;-77
2021/03/11 06:37:53;;;;;;;;;10.75;10.00;;;;;9.91;38.97;98335.81;4697016;29;102886;-77
2021/03/11 06:40:24;;;;;;;;;15.00;10.75;;;;;9.89;39.43;98333.34;4704998;29;104207;-77
2021/03/11 06:42:51;;;;;;;;;13.25;10.50;;;;;9.91;39.29;98343.91;4697855;29;103037;-77
2021/03/11 06:45:22;;;;;;;;;13.50;10.00;;;;;9.91;39.44;98335.81;4694231;29;103977;-88
2021/03/11 06:47:50;;;;;;;;;12.50;10.00;;;;;9.91;39.49;98336.66;4702390;29;103896;-88
2021/03/11 06:50:16;;;;;;;;;11.75;9.75;;;;;9.92;39.58;98332.09;4696067;29;104569;-89
2021/03/11 06:53:02;;;;;;;;;12.00;11.25;;;;;9.93;39.07;98325.66;4692022;29;102698;-88
2021/03/11 06:55:31;;;;;;;;;12.00;10.00;;;;;9.93;39.04;98341.84;4692586;29;102669;-88
2021/03/11 06:58:22;;;;;;;;;13.00;10.25;;;;;9.93;38.90;98322.94;4692884;29;102940;-88
2021/03/11 07:01:06;;;;;;;;;10.75;10.50;;;;;9.90;39.02;98317.97;4700440;29;104242;-89
2021/03/11 07:03:47;;;;;;;;;11.00;9.50;;;;;9.93;39.52;98325.66;4692095;29;102993;-89
2021/03/11 07:06:27;;;;;;;;;13.25;11.50;;;;;9.92;38.85;98323.97;4683606;29;105865;-89
2021/03/11 07:08:54;;;;;;;;;9.75;9.50;;;;;9.92;38.87;98323.97;4700414;29;104813;-88
2021/03/11 07:11:21;;;;;;;;;9.00;8.75;;;;;9.91;39.45;98325.00;4680371;29;104070;-88
2021/03/11 07:13:48;;;;;;;;;16.00;10.00;;;;;9.90;39.09;98336.88;4698622;29;102928;-89
2021/03/11 07:16:16;;;;;;;;;14.75;11.25;;;;;9.91;39.30;98319.59;4696539;29;105194;-77
2021/03/11 07:18:43;;;;;;;;;12.50;11.25;;;;;9.89;39.33;98319.00;4704158;29;102986;-77
2021/03/11 07:21:09;;;;;;;;;11.00;9.25;;;;;9.90;38.86;98312.56;4701724;29;104547;-77
2021/03/11 07:23:46;;;;;;;;;16.75;11.50;;;;;9.90;39.45;98310.69;4695322;29;104731;-77
2021/03/11 07:26:12;;;;;;;;;16.75;11.25;;;;;9.90;39.16;98308.00;4695643;29;102914;-77
2021/03/11 07:28:44;;;;;;;;;13.25;10.75;;;;;9.91;38.90;98303.41;4699527;29;102932;-76
2021/03/11 07:31:11;;;;;;;;;11.75;10.50;;;;;9.87;39.30;98297.59;4698029;29;104094;-77
2021/03/11 07:33:38;;;;;;;;;10.25;9.75;;;;;9.91;38.95;98300.69;4692445;29;102816;-77
2021/03/11 07:36:06;;;;;;;;;11.00;10.25;;;;;9.90;39.15;98299.06;4702406;29;102948;-77
2021/03/11 07:38:34;;;;;;;;;12.25;11.00;;;;;9.89;39.50;98309.03;4697559;29;102869;-77
2021/03/11 07:41:09;;;;;;;;;17.25;13.75;;;;;9.88;39.25;98307.34;4695400;29;104801;-77
2021/03/11 07:43:36;;;;;;;;;12.25;10.75;;;;;9.90;39.33;98312.56;4697016;29;102927;-77
2021/03/11 07:46:04;;;;;;;;;14.25;11.50;;;;;9.88;39.23;98304.66;4681511;29;103032;-88
2021/03/11 07:48:30;;;;;;;;;10.00;8.00;;;;;9.88;39.43;98306.53;4697326;29;105447;-88
2021/03/11 07:50:58;;;;;;;;;12.00;10.00;;;;;9.88;39.21;98303.81;4702084;29;104966;-89
2021/03/11 07:53:28;;;;;;;;;11.00;10.25;;;;;9.85;39.47;98295.09;4683038;29;102944;-88
2021/03/11 07:55:55;;;;;;;;;11.00;9.50;;;;;9.88;39.38;98310.06;4702901;29;102712;-89
2021/03/11 07:58:39;;;;;;;;;11.25;9.75;;;;;9.86;39.03;98295.94;4638065;29;105059;-89
2021/03/11 08:01:06;;;;;;;;;16.00;10.00;;;;;9.92;39.49;98294.28;4687665;29;104505;-88
2021/03/11 08:03:33;;;;;;;;;11.25;10.00;;;;;9.91;38.96;98298.00;4696604;29;102929;-88
2021/03/11 08:06:20;;;;;;;;;12.50;10.00;;;;;9.91;39.06;98289.91;4681922;29;102986;-89
2021/03/11 08:08:47;;;;;;;;;9.00;8.75;;;;;9.92;39.14;98278.06;4626554;29;103012;-89
2021/03/11 08:11:41;;;;;;;;;11.25;10.00;;;;;9.94;38.99;98281.41;4676867;29;104287;-89
2021/03/11 08:14:24;;;;;;;;;10.25;9.00;;;;;9.94;38.77;98270.59;4600163;29;102838;-88
2021/03/11 08:16:52;;;;;;;;;9.00;9.00;;;;;9.95;38.66;98261.47;4700107;29;102916;-88
2021/03/11 08:19:35;;;;;;;;;13.25;9.00;;;;;9.96;39.24;98260.41;4696599;29;102795;-89
2021/03/11 08:22:03;;;;;;;;;10.00;9.75;;;;;9.96;38.85;98245.03;4698090;29;109543;-88
2021/03/11 08:24:44;;;;;;;;;11.25;10.50;;;;;9.97;39.00;98243.19;4682556;29;102894;-88
2021/03/11 08:27:32;;;;;;;;;16.25;11.00;;;;;10.00;39.16;98234.66;4576118;29;102942;-88
2021/03/11 08:29:59;;;;;;;;;10.00;8.75;;;;;10.00;39.15;98227.38;4695560;29;102901;-88
2021/03/11 08:32:48;;;;;;;;;11.25;10.00;;;;;10.01;39.40;98233.63;4675558;29;104192;-88
2021/03/11 08:35:28;;;;;;;;;11.50;8.00;;;;;10.01;38.82;98239.03;4591032;29;102943;-88
2021/03/11 08:37:55;;;;;;;;;9.50;8.50;;;;;10.01;38.88;98222.81;4700310;29;102773;-88
2021/03/11 08:40:38;;;;;;;;;9.00;9.00;;;;;10.01;38.64;98217.41;4703392;29;105905;-88
2021/03/11 08:43:05;;;;;;;;;11.25;10.00;;;;;10.00;38.90;98211.19;4697303;29;110780;-88
2021/03/11 08:45:35;;;;;;;;;11.00;9.50;;;;;10.00;38.71;98205.78;4695931;29;102849;-87
2021/03/11 08:48:19;;;;;;;;;9.50;8.00;;;;;10.01;38.74;98206.63;4695341;29;102999;-81
2021/03/11 08:50:47;;;;;;;;;14.25;10.50;;;;;10.01;39.05;98207.44;4695993;29;102895;-88
2021/03/11 08:53:44;;;;;;;;;11.25;10.25;;;;;10.01;38.94;98204.75;4675193;29;104105;-87
2021/03/11 08:56:17;;;;;;;;;10.00;9.00;;;;;10.01;38.64;98206.63;4641729;29;102798;-88
2021/03/11 08:58:54;;;;;;;;;13.50;9.75;;;;;9.99;38.97;98187.09;4695908;29;102958;-87
2021/03/11 09:01:36;;;;;;;;;10.50;9.75;;;;;10.02;38.89;98194.78;4700692;29;102862;-87
2021/03/11 09:04:10;;;;;;;;;11.75;9.75;;;;;10.02;39.08;98175.88;4694572;29;109671;-86
2021/03/11 09:07:01;;;;;;;;;10.00;7.50;;;;;10.03;38.79;98180.25;4693655;29;102782;-87
2021/03/11 09:09:45;;;;;;;;;11.00;10.00;;;;;10.03;39.07;98182.94;4697655;29;102759;-87
2021/03/11 09:12:20;;;;;;;;;9.50;9.00;;;;;10.02;39.19;98175.88;4574603;29;102977;-88
2021/03/11 09:14:49;;;;;;;;;11.75;10.50;;;;;10.03;38.76;98172.13;4685392;29;103911;-77
2021/03/11 09:17:17;;;;;;;;;9.00;8.50;;;;;10.03;38.71;98164.88;4700297;29;103098;-77
2021/03/11 09:19:44;;;;;;;;;9.75;9.50;;;;;10.02;38.79;98156.97;4695879;29;102900;-77
2021/03/11 09:22:46;;;;;;;;;13.25;9.75;;;;;10.05;38.87;98159.25;4706919;29;102911;-77
2021/03/11 09:25:14;;;;;;;;;8.25;6.50;;;;;10.03;38.59;98150.53;4618083;29;109284;-77
2021/03/11 09:27:56;;;;;;;;;11.00;9.00;;;;;10.05;38.49;98148.44;4692584;29;102767;-76
2021/03/11 09:30:29;;;;;;;;;8.75;8.50;;;;;10.07;38.85;98147.22;4672702;29;102917;-77
2021/03/11 09:32:56;;;;;;;;;7.00;6.00;;;;;10.10;38.65;98129.72;4695719;29;102934;-77
2021/03/11 09:35:24;;;;;;;;;8.75;7.50;;;;;10.09;38.62;98114.56;4697112;29;108260;-77
2021/03/11 09:37:52;;;;;;;;;9.25;8.50;;;;;10.12;38.85;98098.78;4688238;29;102758;-77
2021/03/11 09:40:36;;;;;;;;;9.00;8.25;;;;;10.12;38.57;98081.75;4698456;29;102958;-77
2021/03/11 09:43:08;;;;;;;;;9.50;9.00;;;;;10.16;38.59;98083.00;4694600;29;102940;-77
2021/03/11 09:45:37;;;;;;;;;7.50;4.00;;;;;10.15;38.78;98076.78;4686496;29;109151;-87
2021/03/11 09:48:05;;;;;;;;;11.00;9.50;;;;;10.18;38.73;98072.81;4681203;29;104345;-88
2021/03/11 09:50:33;;;;;;;;;8.75;7.75;;;;;10.19;38.49;98079.88;4695623;29;104149;-87
2021/03/11 09:53:01;;;;;;;;;12.50;8.75;;;;;10.20;38.88;98066.16;4697262;29;102896;-88
2021/03/11 09:55:29;;;;;;;;;8.50;6.50;;;;;10.20;38.74;98063.47;4696680;29;104643;-88
2021/03/11 09:57:56;;;;;;;;;11.00;8.00;;;;;10.20;38.29;98058.06;4683512;29;102937;-88
2021/03/11 10:00:38;;;;;;;;;9.75;9.00;;;;;10.21;38.73;98061.59;4680718;29;102834;-88
2021/03/11 10:03:05;;;;;;;;;9.50;6.25;;;;;10.19;38.83;98053.69;4682695;29;102911;-87
2021/03/11 10:05:32;;;;;;;;;7.50;6.25;;;;;10.20;38.50;98046.44;4664467;29;109577;-88
2021/03/11 10:08:00;;;;;;;;;9.25;8.50;;;;;10.21;38.43;98053.50;4664851;29;102945;-87
2021/03/11 10:10:26;;;;;;;;;11.00;9.00;;;;;10.20;38.69;98057.22;4707418;29;104608;-88
2021/03/11 10:12:53;;;;;;;;;8.00;8.00;;;;;10.21;38.29;98051.63;4674270;29;102979;-88
2021/03/11 10:15:20;;;;;;;;;10.50;9.00;;;;;10.20;38.83;98038.31;4696261;29;104779;-87
2021/03/11 10:17:46;;;;;;;;;9.00;8.50;;;;;10.22;38.65;98030.84;4680135;29;103086;-87
2021/03/11 10:20:22;;;;;;;;;10.50;9.00;;;;;10.21;38.39;98023.78;4697578;29;102904;-88
2021/03/11 10:22:49;;;;;;;;;11.25;9.00;;;;;10.21;38.76;98021.06;4699672;29;103305;-88
2021/03/11 10:25:16;;;;;;;;;12.00;10.00;;;;;10.19;38.22;98013.19;4677807;29;103808;-88
2021/03/11 10:27:44;;;;;;;;;7.75;6.25;;;;;10.20;38.65;98014.00;4678226;29;104021;-88
2021/03/11 10:30:23;;;;;;;;;8.00;7.50;;;;;10.18;38.55;98006.09;4691572;29;104653;-87
2021/03/11 10:32:53;;;;;;;;;10.00;8.75;;;;;10.19;38.68;98005.06;4699049;29;103049;-88
2021/03/11 10:35:34;;;;;;;;;7.00;6.25;;;;;10.18;38.53;97995.28;4694028;29;105115;-88
2021/03/11 10:38:21;;;;;;;;;8.50;8.00;;;;;10.18;38.67;97992.59;4696449;29;102965;-88
2021/03/11 10:40:48;;;;;;;;;5.50;4.75;;;;;10.17;38.30;97990.13;4616949;29;103079;-88
2021/03/11 10:43:22;;;;;;;;;8.25;7.00;;;;;10.18;38.48;97997.16;4697198;29;102765;-88
2021/03/11 10:45:49;;;;;;;;;11.00;10.00;;;;;10.18;38.54;97980.97;4701249;29;103898;-88
2021/03/11 10:48:16;;;;;;;;;9.00;9.00;;;;;10.16;38.98;97975.78;4697223;29;104787;-88
2021/03/11 10:50:51;;;;;;;;;6.00;6.00;;;;;10.18;38.73;97978.25;4691788;29;102903;-88
2021/03/11 10:53:22;;;;;;;;;12.00;10.00;;;;;10.17;38.49;97979.31;4686989;29;104790;-88
2021/03/11 10:55:49;;;;;;;;;9.25;9.25;;;;;10.18;38.98;97962.03;4668428;29;105900;-87
2021/03/11 10:58:20;;;;;;;;;10.00;6.25;;;;;10.15;38.66;97962.44;4690474;29;111552;-87
2021/03/11 11:01:06;;;;;;;;;10.75;9.75;;;;;10.17;38.88;97957.72;4699553;29;106704;-88
2021/03/11 11:03:33;;;;;;;;;9.75;9.00;;;;;10.17;38.69;97965.81;4697013;29;102681;-87
2021/03/11 11:06:01;;;;;;;;;9.50;6.00;;;;;10.15;38.73;97957.91;4678945;29;103931;-88
2021/03/11 11:08:27;;;;;;;;;8.00;5.25;;;;;10.16;38.36;97953.34;4682564;29;105550;-88
2021/03/11 11:10:54;;;;;;;;;10.00;8.00;;;;;10.17;38.79;97957.72;4696125;29;103830;-88
2021/03/11 11:13:21;;;;;;;;;7.75;7.75;;;;;10.17;38.77;97955.00;4692643;29;102999;-87
2021/03/11 11:15:47;;;;;;;;;9.75;7.75;;;;;10.16;38.69;97956.88;4698372;29;104459;-77
2021/03/11 11:18:14;;;;;;;;;5.50;4.00;;;;;10.17;38.86;97952.31;4703161;29;102652;-77
2021/03/11 11:20:41;;;;;;;;;11.50;7.75;;;;;10.18;38.61;97951.25;4690927;29;102813;-77
2021/03/11 11:23:08;;;;;;;;;8.00;7.50;;;;;10.18;38.76;97949.38;4694050;29;105614;-77
2021/03/11 11:25:34;;;;;;;;;8.00;8.00;;;;;10.19;38.65;97934.00;4696719;29;109018;-77
2021/03/11 11:28:01;;;;;;;;;10.00;8.00;;;;;10.19;38.63;97920.50;4698026;29;102880;-77
2021/03/11 11:30:28;;;;;;;;;8.50;6.00;;;;;10.19;38.75;97928.59;4687404;29;102832;-77
2021/03/11 11:32:55;;;;;;;;;10.25;8.25;;;;;10.19;38.62;97912.38;4694279;29;103257;-76
2021/03/11 11:35:22;;;;;;;;;9.00;6.50;;;;;10.19;38.58;97912.38;4679616;29;104340;-77